sensor_id;sensor_type;location;lat;lon;timestamp;P1;durP1;ratioP1;P2;durP2;ratioP2
37201;SDS011;37799;52.390;6.136;2024-02-26T00:01:22;6.63;;;2.25;;
37201;SDS011;37799;52.390;6.136;2024-02-26T00:03:48;6.45;;;2.30;;
37201;SDS011;37799;52.390;6.136;2024-02-26T00:06:13;8.15;;;2.25;;
37201;SDS011;37799;52.390;6.136;2024-02-26T00:08:39;5.82;;;2.38;;
37201;SDS011;37799;52.390;6.136;2024-02-26T00:11:04;5.68;;;2.40;;
37201;SDS011;37799;52.390;6.136;2024-02-26T00:13:29;7.35;;;2.78;;
37201;SDS011;37799;52.390;6.136;2024-02-26T00:15:55;7.15;;;2.40;;
37201;SDS011;37799;52.390;6.136;2024-02-26T00:18:20;8.05;;;2.70;;
37201;SDS011;37799;52.390;6.136;2024-02-26T00:20:45;6.30;;;2.53;;
37201;SDS011;37799;52.390;6.136;2024-02-26T00:23:11;7.85;;;2.95;;
37201;SDS011;37799;52.390;6.136;2024-02-26T00:25:36;7.22;;;2.90;;
37201;SDS011;37799;52.390;6.136;2024-02-26T00:28:02;7.47;;;2.47;;
37201;SDS011;37799;52.390;6.136;2024-02-26T00:30:29;8.57;;;2.85;;
37201;SDS011;37799;52.390;6.136;2024-02-26T00:32:54;6.68;;;2.70;;
37201;SDS011;37799;52.390;6.136;2024-02-26T00:35:20;8.27;;;2.95;;
37201;SDS011;37799;52.390;6.136;2024-02-26T00:37:45;7.60;;;3.10;;
37201;SDS011;37799;52.390;6.136;2024-02-26T00:40:11;8.40;;;2.60;;
37201;SDS011;37799;52.390;6.136;2024-02-26T00:42:36;8.80;;;3.17;;
37201;SDS011;37799;52.390;6.136;2024-02-26T00:45:02;8.63;;;3.20;;
37201;SDS011;37799;52.390;6.136;2024-02-26T00:47:27;8.38;;;3.20;;
37201;SDS011;37799;52.390;6.136;2024-02-26T00:49:52;8.50;;;3.33;;
37201;SDS011;37799;52.390;6.136;2024-02-26T00:52:18;8.18;;;3.13;;
37201;SDS011;37799;52.390;6.136;2024-02-26T00:54:43;8.07;;;3.08;;
37201;SDS011;37799;52.390;6.136;2024-02-26T00:57:08;7.95;;;3.10;;
37201;SDS011;37799;52.390;6.136;2024-02-26T00:59:33;9.07;;;3.78;;
37201;SDS011;37799;52.390;6.136;2024-02-26T01:01:59;8.95;;;3.15;;
37201;SDS011;37799;52.390;6.136;2024-02-26T01:04:27;7.93;;;3.13;;
37201;SDS011;37799;52.390;6.136;2024-02-26T01:06:52;7.28;;;3.15;;
37201;SDS011;37799;52.390;6.136;2024-02-26T01:09:17;8.38;;;3.17;;
37201;SDS011;37799;52.390;6.136;2024-02-26T01:11:43;7.65;;;2.95;;
37201;SDS011;37799;52.390;6.136;2024-02-26T01:14:08;9.05;;;3.38;;
37201;SDS011;37799;52.390;6.136;2024-02-26T01:16:34;7.68;;;3.42;;
37201;SDS011;37799;52.390;6.136;2024-02-26T01:18:59;7.70;;;2.97;;
37201;SDS011;37799;52.390;6.136;2024-02-26T01:21:24;8.80;;;3.60;;
37201;SDS011;37799;52.390;6.136;2024-02-26T01:23:49;8.85;;;2.90;;
37201;SDS011;37799;52.390;6.136;2024-02-26T01:26:15;9.77;;;3.65;;
37201;SDS011;37799;52.390;6.136;2024-02-26T01:28:40;8.75;;;3.60;;
37201;SDS011;37799;52.390;6.136;2024-02-26T01:31:06;9.25;;;3.55;;
37201;SDS011;37799;52.390;6.136;2024-02-26T01:33:33;9.60;;;4.05;;
37201;SDS011;37799;52.390;6.136;2024-02-26T01:35:58;8.52;;;3.60;;
37201;SDS011;37799;52.390;6.136;2024-02-26T01:38:25;9.48;;;4.03;;
37201;SDS011;37799;52.390;6.136;2024-02-26T01:40:51;10.20;;;3.92;;
37201;SDS011;37799;52.390;6.136;2024-02-26T01:43:16;10.00;;;4.30;;
37201;SDS011;37799;52.390;6.136;2024-02-26T01:45:42;9.98;;;4.10;;
37201;SDS011;37799;52.390;6.136;2024-02-26T01:48:07;10.32;;;3.72;;
37201;SDS011;37799;52.390;6.136;2024-02-26T01:50:33;9.63;;;3.72;;
37201;SDS011;37799;52.390;6.136;2024-02-26T01:52:59;10.95;;;4.63;;
37201;SDS011;37799;52.390;6.136;2024-02-26T01:55:25;11.32;;;4.32;;
37201;SDS011;37799;52.390;6.136;2024-02-26T01:57:51;14.27;;;4.70;;
37201;SDS011;37799;52.390;6.136;2024-02-26T02:00:17;10.43;;;4.32;;
37201;SDS011;37799;52.390;6.136;2024-02-26T02:02:44;13.38;;;5.53;;
37201;SDS011;37799;52.390;6.136;2024-02-26T02:05:12;11.48;;;4.43;;
37201;SDS011;37799;52.390;6.136;2024-02-26T02:07:39;10.98;;;4.47;;
37201;SDS011;37799;52.390;6.136;2024-02-26T02:10:06;11.80;;;4.57;;
37201;SDS011;37799;52.390;6.136;2024-02-26T02:12:32;11.15;;;4.53;;
37201;SDS011;37799;52.390;6.136;2024-02-26T02:14:59;11.65;;;4.75;;
37201;SDS011;37799;52.390;6.136;2024-02-26T02:17:25;12.10;;;4.90;;
37201;SDS011;37799;52.390;6.136;2024-02-26T02:19:52;12.55;;;4.70;;
37201;SDS011;37799;52.390;6.136;2024-02-26T02:22:17;11.88;;;4.72;;
37201;SDS011;37799;52.390;6.136;2024-02-26T02:24:43;10.27;;;4.13;;
37201;SDS011;37799;52.390;6.136;2024-02-26T02:27:08;10.93;;;4.45;;
37201;SDS011;37799;52.390;6.136;2024-02-26T02:29:33;12.13;;;4.90;;
37201;SDS011;37799;52.390;6.136;2024-02-26T02:31:59;10.98;;;4.35;;
37201;SDS011;37799;52.390;6.136;2024-02-26T02:34:26;13.45;;;4.90;;
37201;SDS011;37799;52.390;6.136;2024-02-26T02:36:52;10.85;;;4.30;;
37201;SDS011;37799;52.390;6.136;2024-02-26T02:39:18;11.82;;;4.53;;
37201;SDS011;37799;52.390;6.136;2024-02-26T02:41:44;10.68;;;4.38;;
37201;SDS011;37799;52.390;6.136;2024-02-26T02:44:09;11.73;;;4.15;;
37201;SDS011;37799;52.390;6.136;2024-02-26T02:46:35;11.10;;;4.65;;
37201;SDS011;37799;52.390;6.136;2024-02-26T02:49:00;11.63;;;4.18;;
37201;SDS011;37799;52.390;6.136;2024-02-26T02:51:26;12.73;;;4.47;;
37201;SDS011;37799;52.390;6.136;2024-02-26T02:53:51;11.32;;;4.30;;
37201;SDS011;37799;52.390;6.136;2024-02-26T02:56:16;10.75;;;4.15;;
37201;SDS011;37799;52.390;6.136;2024-02-26T02:58:41;9.77;;;3.88;;
37201;SDS011;37799;52.390;6.136;2024-02-26T03:01:07;11.15;;;4.32;;
37201;SDS011;37799;52.390;6.136;2024-02-26T03:03:32;11.68;;;4.55;;
37201;SDS011;37799;52.390;6.136;2024-02-26T03:05:57;12.00;;;4.65;;
37201;SDS011;37799;52.390;6.136;2024-02-26T03:08:23;12.98;;;4.93;;
37201;SDS011;37799;52.390;6.136;2024-02-26T03:10:50;13.75;;;4.78;;
37201;SDS011;37799;52.390;6.136;2024-02-26T03:13:16;11.32;;;4.45;;
37201;SDS011;37799;52.390;6.136;2024-02-26T03:15:41;10.45;;;4.05;;
37201;SDS011;37799;52.390;6.136;2024-02-26T03:18:07;11.18;;;4.47;;
37201;SDS011;37799;52.390;6.136;2024-02-26T03:20:32;12.93;;;5.63;;
37201;SDS011;37799;52.390;6.136;2024-02-26T03:22:58;12.02;;;4.95;;
37201;SDS011;37799;52.390;6.136;2024-02-26T03:25:23;11.82;;;4.90;;
37201;SDS011;37799;52.390;6.136;2024-02-26T03:27:48;12.52;;;5.25;;
37201;SDS011;37799;52.390;6.136;2024-02-26T03:30:13;13.02;;;4.50;;
37201;SDS011;37799;52.390;6.136;2024-02-26T03:32:39;11.40;;;4.68;;
37201;SDS011;37799;52.390;6.136;2024-02-26T03:35:04;14.07;;;5.53;;
37201;SDS011;37799;52.390;6.136;2024-02-26T03:37:30;11.00;;;4.70;;
37201;SDS011;37799;52.390;6.136;2024-02-26T03:39:55;12.00;;;4.50;;
37201;SDS011;37799;52.390;6.136;2024-02-26T03:42:22;13.13;;;4.97;;
37201;SDS011;37799;52.390;6.136;2024-02-26T03:44:47;13.00;;;5.32;;
37201;SDS011;37799;52.390;6.136;2024-02-26T03:47:12;12.85;;;4.95;;
37201;SDS011;37799;52.390;6.136;2024-02-26T03:49:38;11.98;;;5.03;;
37201;SDS011;37799;52.390;6.136;2024-02-26T03:52:03;11.35;;;5.05;;
37201;SDS011;37799;52.390;6.136;2024-02-26T03:54:28;11.88;;;4.88;;
37201;SDS011;37799;52.390;6.136;2024-02-26T03:56:54;11.95;;;5.32;;
37201;SDS011;37799;52.390;6.136;2024-02-26T03:59:19;11.35;;;5.07;;
37201;SDS011;37799;52.390;6.136;2024-02-26T04:01:46;11.60;;;5.10;;
37201;SDS011;37799;52.390;6.136;2024-02-26T04:04:12;12.88;;;5.53;;
37201;SDS011;37799;52.390;6.136;2024-02-26T04:06:37;11.45;;;4.88;;
37201;SDS011;37799;52.390;6.136;2024-02-26T04:09:03;12.27;;;5.28;;
37201;SDS011;37799;52.390;6.136;2024-02-26T04:11:29;11.40;;;4.80;;
37201;SDS011;37799;52.390;6.136;2024-02-26T04:13:54;13.13;;;5.43;;
37201;SDS011;37799;52.390;6.136;2024-02-26T04:16:20;12.98;;;5.57;;
37201;SDS011;37799;52.390;6.136;2024-02-26T04:18:45;11.35;;;4.63;;
37201;SDS011;37799;52.390;6.136;2024-02-26T04:21:10;14.18;;;5.38;;
37201;SDS011;37799;52.390;6.136;2024-02-26T04:23:36;13.88;;;5.78;;
37201;SDS011;37799;52.390;6.136;2024-02-26T04:26:01;11.30;;;4.60;;
37201;SDS011;37799;52.390;6.136;2024-02-26T04:28:26;14.07;;;6.30;;
37201;SDS011;37799;52.390;6.136;2024-02-26T04:30:54;13.15;;;5.57;;
37201;SDS011;37799;52.390;6.136;2024-02-26T04:33:19;14.57;;;5.72;;
37201;SDS011;37799;52.390;6.136;2024-02-26T04:35:45;12.10;;;5.55;;
37201;SDS011;37799;52.390;6.136;2024-02-26T04:38:10;12.88;;;5.28;;
37201;SDS011;37799;52.390;6.136;2024-02-26T04:40:35;13.50;;;5.45;;
37201;SDS011;37799;52.390;6.136;2024-02-26T04:43:00;13.05;;;5.47;;
37201;SDS011;37799;52.390;6.136;2024-02-26T04:45:26;14.57;;;5.85;;
37201;SDS011;37799;52.390;6.136;2024-02-26T04:47:51;14.07;;;5.53;;
37201;SDS011;37799;52.390;6.136;2024-02-26T04:50:16;14.32;;;5.82;;
37201;SDS011;37799;52.390;6.136;2024-02-26T04:52:42;15.75;;;6.80;;
37201;SDS011;37799;52.390;6.136;2024-02-26T04:55:07;15.82;;;6.32;;
37201;SDS011;37799;52.390;6.136;2024-02-26T04:57:33;13.73;;;4.75;;
37201;SDS011;37799;52.390;6.136;2024-02-26T04:59:58;14.27;;;5.85;;
37201;SDS011;37799;52.390;6.136;2024-02-26T05:02:24;14.15;;;6.00;;
37201;SDS011;37799;52.390;6.136;2024-02-26T05:04:49;15.23;;;5.93;;
37201;SDS011;37799;52.390;6.136;2024-02-26T05:07:15;17.38;;;7.03;;
37201;SDS011;37799;52.390;6.136;2024-02-26T05:09:42;14.52;;;5.72;;
37201;SDS011;37799;52.390;6.136;2024-02-26T05:12:08;16.17;;;6.18;;
37201;SDS011;37799;52.390;6.136;2024-02-26T05:14:34;16.02;;;6.15;;
37201;SDS011;37799;52.390;6.136;2024-02-26T05:16:59;16.00;;;6.75;;
37201;SDS011;37799;52.390;6.136;2024-02-26T05:19:25;15.10;;;5.60;;
37201;SDS011;37799;52.390;6.136;2024-02-26T05:21:50;16.90;;;6.53;;
37201;SDS011;37799;52.390;6.136;2024-02-26T05:24:16;14.98;;;5.60;;
37201;SDS011;37799;52.390;6.136;2024-02-26T05:26:42;15.20;;;5.68;;
37201;SDS011;37799;52.390;6.136;2024-02-26T05:29:08;16.83;;;6.53;;
37201;SDS011;37799;52.390;6.136;2024-02-26T05:31:33;16.10;;;6.30;;
37201;SDS011;37799;52.390;6.136;2024-02-26T05:33:59;17.70;;;7.00;;
37201;SDS011;37799;52.390;6.136;2024-02-26T05:36:24;16.48;;;6.45;;
37201;SDS011;37799;52.390;6.136;2024-02-26T05:38:50;15.73;;;6.43;;
37201;SDS011;37799;52.390;6.136;2024-02-26T05:41:16;17.67;;;6.53;;
37201;SDS011;37799;52.390;6.136;2024-02-26T05:43:45;18.73;;;7.03;;
37201;SDS011;37799;52.390;6.136;2024-02-26T05:46:10;19.45;;;7.25;;
37201;SDS011;37799;52.390;6.136;2024-02-26T05:48:35;14.85;;;5.80;;
37201;SDS011;37799;52.390;6.136;2024-02-26T05:51:01;19.55;;;5.97;;
37201;SDS011;37799;52.390;6.136;2024-02-26T05:53:26;18.02;;;5.60;;
37201;SDS011;37799;52.390;6.136;2024-02-26T05:55:52;17.92;;;5.55;;
37201;SDS011;37799;52.390;6.136;2024-02-26T05:58:17;19.88;;;6.53;;
37201;SDS011;37799;52.390;6.136;2024-02-26T06:00:42;18.05;;;6.18;;
37201;SDS011;37799;52.390;6.136;2024-02-26T06:03:07;18.60;;;6.63;;
37201;SDS011;37799;52.390;6.136;2024-02-26T06:05:33;16.23;;;6.07;;
37201;SDS011;37799;52.390;6.136;2024-02-26T06:07:58;16.27;;;5.68;;
37201;SDS011;37799;52.390;6.136;2024-02-26T06:10:23;17.13;;;5.85;;
37201;SDS011;37799;52.390;6.136;2024-02-26T06:12:49;20.23;;;6.93;;
37201;SDS011;37799;52.390;6.136;2024-02-26T06:15:14;19.10;;;7.43;;
37201;SDS011;37799;52.390;6.136;2024-02-26T06:17:39;22.23;;;6.97;;
37201;SDS011;37799;52.390;6.136;2024-02-26T06:20:05;20.08;;;6.78;;
37201;SDS011;37799;52.390;6.136;2024-02-26T06:22:31;19.42;;;6.30;;
37201;SDS011;37799;52.390;6.136;2024-02-26T06:24:57;22.70;;;7.63;;
37201;SDS011;37799;52.390;6.136;2024-02-26T06:27:22;25.65;;;8.57;;
37201;SDS011;37799;52.390;6.136;2024-02-26T06:29:48;21.58;;;7.70;;
37201;SDS011;37799;52.390;6.136;2024-02-26T06:32:14;21.08;;;7.38;;
37201;SDS011;37799;52.390;6.136;2024-02-26T06:34:39;21.90;;;7.10;;
37201;SDS011;37799;52.390;6.136;2024-02-26T06:37:06;22.88;;;8.05;;
37201;SDS011;37799;52.390;6.136;2024-02-26T06:39:32;23.25;;;7.93;;
37201;SDS011;37799;52.390;6.136;2024-02-26T06:41:57;22.42;;;8.05;;
37201;SDS011;37799;52.390;6.136;2024-02-26T06:44:26;21.58;;;6.85;;
37201;SDS011;37799;52.390;6.136;2024-02-26T06:46:56;17.60;;;5.80;;
37201;SDS011;37799;52.390;6.136;2024-02-26T06:49:22;20.52;;;6.93;;
37201;SDS011;37799;52.390;6.136;2024-02-26T06:51:47;19.40;;;6.90;;
37201;SDS011;37799;52.390;6.136;2024-02-26T06:54:12;25.58;;;8.13;;
37201;SDS011;37799;52.390;6.136;2024-02-26T06:56:37;21.65;;;6.97;;
37201;SDS011;37799;52.390;6.136;2024-02-26T06:59:03;19.67;;;7.30;;
37201;SDS011;37799;52.390;6.136;2024-02-26T07:01:28;18.27;;;6.63;;
37201;SDS011;37799;52.390;6.136;2024-02-26T07:03:53;19.95;;;6.90;;
37201;SDS011;37799;52.390;6.136;2024-02-26T07:06:19;17.63;;;6.60;;
37201;SDS011;37799;52.390;6.136;2024-02-26T07:08:44;18.33;;;6.65;;
37201;SDS011;37799;52.390;6.136;2024-02-26T07:11:10;16.00;;;6.25;;
37201;SDS011;37799;52.390;6.136;2024-02-26T07:13:35;17.80;;;6.32;;
37201;SDS011;37799;52.390;6.136;2024-02-26T07:16:00;16.95;;;6.13;;
37201;SDS011;37799;52.390;6.136;2024-02-26T07:18:26;15.55;;;5.90;;
37201;SDS011;37799;52.390;6.136;2024-02-26T07:20:51;19.33;;;6.15;;
37201;SDS011;37799;52.390;6.136;2024-02-26T07:23:16;17.42;;;5.95;;
37201;SDS011;37799;52.390;6.136;2024-02-26T07:25:42;19.77;;;6.57;;
37201;SDS011;37799;52.390;6.136;2024-02-26T07:28:09;16.70;;;5.75;;
37201;SDS011;37799;52.390;6.136;2024-02-26T07:30:34;15.05;;;5.10;;
37201;SDS011;37799;52.390;6.136;2024-02-26T07:33:00;16.73;;;5.50;;
37201;SDS011;37799;52.390;6.136;2024-02-26T07:35:25;11.57;;;4.43;;
37201;SDS011;37799;52.390;6.136;2024-02-26T07:37:52;18.80;;;5.95;;
37201;SDS011;37799;52.390;6.136;2024-02-26T07:40:17;16.30;;;5.38;;
37201;SDS011;37799;52.390;6.136;2024-02-26T07:42:43;12.82;;;4.40;;
37201;SDS011;37799;52.390;6.136;2024-02-26T07:45:09;12.57;;;4.30;;
37201;SDS011;37799;52.390;6.136;2024-02-26T07:47:35;15.73;;;5.45;;
37201;SDS011;37799;52.390;6.136;2024-02-26T07:50:00;13.77;;;5.05;;
37201;SDS011;37799;52.390;6.136;2024-02-26T07:52:26;12.13;;;4.53;;
37201;SDS011;37799;52.390;6.136;2024-02-26T07:54:51;13.57;;;4.38;;
37201;SDS011;37799;52.390;6.136;2024-02-26T07:57:16;11.82;;;4.53;;
37201;SDS011;37799;52.390;6.136;2024-02-26T07:59:42;12.70;;;3.80;;
37201;SDS011;37799;52.390;6.136;2024-02-26T08:02:07;11.27;;;3.85;;
37201;SDS011;37799;52.390;6.136;2024-02-26T08:04:33;12.65;;;4.07;;
37201;SDS011;37799;52.390;6.136;2024-02-26T08:06:58;14.07;;;4.28;;
37201;SDS011;37799;52.390;6.136;2024-02-26T08:09:23;13.40;;;4.57;;
37201;SDS011;37799;52.390;6.136;2024-02-26T08:11:49;11.15;;;3.28;;
37201;SDS011;37799;52.390;6.136;2024-02-26T08:14:14;10.98;;;3.97;;
37201;SDS011;37799;52.390;6.136;2024-02-26T08:16:39;11.65;;;4.20;;
37201;SDS011;37799;52.390;6.136;2024-02-26T08:19:05;12.82;;;4.50;;
37201;SDS011;37799;52.390;6.136;2024-02-26T08:21:30;11.48;;;3.92;;
37201;SDS011;37799;52.390;6.136;2024-02-26T08:23:55;11.88;;;4.05;;
37201;SDS011;37799;52.390;6.136;2024-02-26T08:26:22;10.75;;;4.05;;
37201;SDS011;37799;52.390;6.136;2024-02-26T08:28:49;11.50;;;4.28;;
37201;SDS011;37799;52.390;6.136;2024-02-26T08:31:16;10.82;;;3.90;;
37201;SDS011;37799;52.390;6.136;2024-02-26T08:33:41;11.32;;;3.35;;
37201;SDS011;37799;52.390;6.136;2024-02-26T08:36:07;9.68;;;3.15;;
37201;SDS011;37799;52.390;6.136;2024-02-26T08:38:33;11.43;;;4.13;;
37201;SDS011;37799;52.390;6.136;2024-02-26T08:41:00;11.27;;;3.88;;
37201;SDS011;37799;52.390;6.136;2024-02-26T08:43:26;12.10;;;3.83;;
37201;SDS011;37799;52.390;6.136;2024-02-26T08:45:52;11.15;;;3.75;;
37201;SDS011;37799;52.390;6.136;2024-02-26T08:48:17;12.10;;;3.80;;
37201;SDS011;37799;52.390;6.136;2024-02-26T08:50:43;11.48;;;3.85;;
37201;SDS011;37799;52.390;6.136;2024-02-26T08:53:08;10.68;;;3.60;;
37201;SDS011;37799;52.390;6.136;2024-02-26T08:55:33;8.95;;;3.08;;
37201;SDS011;37799;52.390;6.136;2024-02-26T08:57:58;10.95;;;2.88;;
37201;SDS011;37799;52.390;6.136;2024-02-26T09:00:24;8.48;;;3.20;;
37201;SDS011;37799;52.390;6.136;2024-02-26T09:02:49;9.93;;;3.50;;
37201;SDS011;37799;52.390;6.136;2024-02-26T09:05:14;10.77;;;2.95;;
37201;SDS011;37799;52.390;6.136;2024-02-26T09:07:40;11.13;;;3.40;;
37201;SDS011;37799;52.390;6.136;2024-02-26T09:10:05;9.55;;;2.83;;
37201;SDS011;37799;52.390;6.136;2024-02-26T09:12:33;11.30;;;3.30;;
37201;SDS011;37799;52.390;6.136;2024-02-26T09:14:58;10.93;;;3.75;;
37201;SDS011;37799;52.390;6.136;2024-02-26T09:17:24;12.38;;;4.40;;
37201;SDS011;37799;52.390;6.136;2024-02-26T09:19:49;11.75;;;4.18;;
37201;SDS011;37799;52.390;6.136;2024-02-26T09:22:14;9.35;;;3.58;;
37201;SDS011;37799;52.390;6.136;2024-02-26T09:24:40;9.77;;;3.65;;
37201;SDS011;37799;52.390;6.136;2024-02-26T09:27:05;10.35;;;3.63;;
37201;SDS011;37799;52.390;6.136;2024-02-26T09:29:30;10.98;;;3.65;;
37201;SDS011;37799;52.390;6.136;2024-02-26T09:31:55;9.45;;;3.50;;
37201;SDS011;37799;52.390;6.136;2024-02-26T09:34:21;10.73;;;3.42;;
37201;SDS011;37799;52.390;6.136;2024-02-26T09:36:46;9.35;;;3.25;;
37201;SDS011;37799;52.390;6.136;2024-02-26T09:39:11;9.40;;;3.35;;
37201;SDS011;37799;52.390;6.136;2024-02-26T09:41:37;8.85;;;3.00;;
37201;SDS011;37799;52.390;6.136;2024-02-26T09:44:04;10.88;;;3.75;;
37201;SDS011;37799;52.390;6.136;2024-02-26T09:46:30;9.57;;;3.17;;
37201;SDS011;37799;52.390;6.136;2024-02-26T09:48:56;9.43;;;3.58;;
37201;SDS011;37799;52.390;6.136;2024-02-26T09:51:25;7.97;;;2.58;;
37201;SDS011;37799;52.390;6.136;2024-02-26T09:53:51;9.98;;;3.35;;
37201;SDS011;37799;52.390;6.136;2024-02-26T09:56:19;10.38;;;3.80;;
37201;SDS011;37799;52.390;6.136;2024-02-26T09:58:46;9.25;;;2.95;;
37201;SDS011;37799;52.390;6.136;2024-02-26T10:01:16;9.45;;;2.88;;
37201;SDS011;37799;52.390;6.136;2024-02-26T10:03:43;9.38;;;3.40;;
37201;SDS011;37799;52.390;6.136;2024-02-26T10:06:10;8.88;;;3.20;;
37201;SDS011;37799;52.390;6.136;2024-02-26T10:08:36;7.95;;;2.83;;
37201;SDS011;37799;52.390;6.136;2024-02-26T10:11:02;8.48;;;3.00;;
37201;SDS011;37799;52.390;6.136;2024-02-26T10:13:29;7.55;;;2.85;;
37201;SDS011;37799;52.390;6.136;2024-02-26T10:15:55;10.63;;;3.30;;
37201;SDS011;37799;52.390;6.136;2024-02-26T10:18:20;8.35;;;3.05;;
37201;SDS011;37799;52.390;6.136;2024-02-26T10:21:00;9.85;;;3.90;;
37201;SDS011;37799;52.390;6.136;2024-02-26T10:23:26;10.23;;;3.25;;
37201;SDS011;37799;52.390;6.136;2024-02-26T10:25:52;9.77;;;4.03;;
37201;SDS011;37799;52.390;6.136;2024-02-26T10:28:19;9.35;;;3.30;;
37201;SDS011;37799;52.390;6.136;2024-02-26T10:30:44;9.10;;;3.15;;
37201;SDS011;37799;52.390;6.136;2024-02-26T10:33:10;8.90;;;2.97;;
37201;SDS011;37799;52.390;6.136;2024-02-26T10:35:36;8.70;;;2.55;;
37201;SDS011;37799;52.390;6.136;2024-02-26T10:38:05;10.85;;;2.95;;
37201;SDS011;37799;52.390;6.136;2024-02-26T10:40:31;9.02;;;3.28;;
37201;SDS011;37799;52.390;6.136;2024-02-26T10:42:57;13.88;;;3.50;;
37201;SDS011;37799;52.390;6.136;2024-02-26T10:45:23;9.60;;;2.97;;
37201;SDS011;37799;52.390;6.136;2024-02-26T10:47:48;8.40;;;2.95;;
37201;SDS011;37799;52.390;6.136;2024-02-26T10:50:13;7.85;;;2.83;;
37201;SDS011;37799;52.390;6.136;2024-02-26T10:52:42;9.13;;;2.75;;
37201;SDS011;37799;52.390;6.136;2024-02-26T10:55:07;8.95;;;2.88;;
37201;SDS011;37799;52.390;6.136;2024-02-26T10:57:39;9.43;;;3.15;;
37201;SDS011;37799;52.390;6.136;2024-02-26T11:00:06;11.98;;;3.28;;
37201;SDS011;37799;52.390;6.136;2024-02-26T11:02:35;9.00;;;2.90;;
37201;SDS011;37799;52.390;6.136;2024-02-26T11:05:02;8.35;;;2.90;;
37201;SDS011;37799;52.390;6.136;2024-02-26T11:07:28;8.90;;;3.10;;
37201;SDS011;37799;52.390;6.136;2024-02-26T11:09:55;9.57;;;3.40;;
37201;SDS011;37799;52.390;6.136;2024-02-26T11:12:22;10.00;;;3.30;;
37201;SDS011;37799;52.390;6.136;2024-02-26T11:14:49;8.23;;;2.70;;
37201;SDS011;37799;52.390;6.136;2024-02-26T11:17:17;7.53;;;2.42;;
37201;SDS011;37799;52.390;6.136;2024-02-26T11:19:44;9.15;;;2.85;;
37201;SDS011;37799;52.390;6.136;2024-02-26T11:22:11;7.63;;;2.80;;
37201;SDS011;37799;52.390;6.136;2024-02-26T11:24:36;9.13;;;3.03;;
37201;SDS011;37799;52.390;6.136;2024-02-26T11:27:06;8.57;;;2.88;;
37201;SDS011;37799;52.390;6.136;2024-02-26T11:29:35;10.10;;;3.67;;
37201;SDS011;37799;52.390;6.136;2024-02-26T11:32:04;9.23;;;3.05;;
37201;SDS011;37799;52.390;6.136;2024-02-26T11:34:30;9.68;;;3.17;;
37201;SDS011;37799;52.390;6.136;2024-02-26T11:36:56;8.75;;;2.80;;
37201;SDS011;37799;52.390;6.136;2024-02-26T11:39:22;8.45;;;3.10;;
37201;SDS011;37799;52.390;6.136;2024-02-26T11:41:48;8.00;;;2.85;;
37201;SDS011;37799;52.390;6.136;2024-02-26T11:44:15;9.07;;;3.13;;
37201;SDS011;37799;52.390;6.136;2024-02-26T11:46:54;9.07;;;3.55;;
37201;SDS011;37799;52.390;6.136;2024-02-26T11:51:56;8.98;;;3.17;;
37201;SDS011;37799;52.390;6.136;2024-02-26T11:54:44;6.85;;;2.10;;
37201;SDS011;37799;52.390;6.136;2024-02-26T11:57:23;8.48;;;3.20;;
37201;SDS011;37799;52.390;6.136;2024-02-26T12:00:14;8.20;;;3.05;;
37201;SDS011;37799;52.390;6.136;2024-02-26T12:05:11;9.10;;;3.05;;
37201;SDS011;37799;52.390;6.136;2024-02-26T12:07:40;9.30;;;3.30;;
37201;SDS011;37799;52.390;6.136;2024-02-26T12:12:41;9.13;;;3.05;;
37201;SDS011;37799;52.390;6.136;2024-02-26T12:15:07;9.45;;;2.78;;
37201;SDS011;37799;52.390;6.136;2024-02-26T12:17:35;7.55;;;2.28;;
37201;SDS011;37799;52.390;6.136;2024-02-26T12:20:08;8.85;;;2.90;;
37201;SDS011;37799;52.390;6.136;2024-02-26T12:22:34;7.97;;;2.65;;
37201;SDS011;37799;52.390;6.136;2024-02-26T12:25:02;8.93;;;3.33;;
37201;SDS011;37799;52.390;6.136;2024-02-26T12:27:28;7.75;;;2.47;;
37201;SDS011;37799;52.390;6.136;2024-02-26T12:29:53;8.20;;;2.90;;
37201;SDS011;37799;52.390;6.136;2024-02-26T12:32:18;7.45;;;2.42;;
37201;SDS011;37799;52.390;6.136;2024-02-26T12:34:44;7.95;;;3.10;;
37201;SDS011;37799;52.390;6.136;2024-02-26T12:37:09;9.07;;;3.08;;
37201;SDS011;37799;52.390;6.136;2024-02-26T12:39:36;8.82;;;2.80;;
37201;SDS011;37799;52.390;6.136;2024-02-26T12:42:02;11.57;;;3.00;;
37201;SDS011;37799;52.390;6.136;2024-02-26T12:44:28;9.00;;;3.28;;
37201;SDS011;37799;52.390;6.136;2024-02-26T12:46:59;7.93;;;2.83;;
37201;SDS011;37799;52.390;6.136;2024-02-26T12:49:28;8.38;;;3.15;;
37201;SDS011;37799;52.390;6.136;2024-02-26T12:51:54;13.18;;;4.97;;
37201;SDS011;37799;52.390;6.136;2024-02-26T12:54:26;9.27;;;3.40;;
37201;SDS011;37799;52.390;6.136;2024-02-26T12:56:52;8.45;;;2.63;;
37201;SDS011;37799;52.390;6.136;2024-02-26T12:59:17;10.57;;;4.45;;
37201;SDS011;37799;52.390;6.136;2024-02-26T13:01:43;10.63;;;4.15;;
37201;SDS011;37799;52.390;6.136;2024-02-26T13:04:08;10.70;;;4.60;;
37201;SDS011;37799;52.390;6.136;2024-02-26T13:06:34;9.82;;;3.47;;
37201;SDS011;37799;52.390;6.136;2024-02-26T13:09:00;8.93;;;2.92;;
37201;SDS011;37799;52.390;6.136;2024-02-26T13:11:26;8.23;;;2.90;;
37201;SDS011;37799;52.390;6.136;2024-02-26T13:13:53;8.48;;;3.13;;
37201;SDS011;37799;52.390;6.136;2024-02-26T13:16:19;8.95;;;2.63;;
37201;SDS011;37799;52.390;6.136;2024-02-26T13:18:48;7.72;;;2.75;;
37201;SDS011;37799;52.390;6.136;2024-02-26T13:21:13;7.25;;;2.45;;
37201;SDS011;37799;52.390;6.136;2024-02-26T13:23:40;7.97;;;2.45;;
37201;SDS011;37799;52.390;6.136;2024-02-26T13:26:06;7.88;;;2.38;;
37201;SDS011;37799;52.390;6.136;2024-02-26T13:28:32;8.18;;;2.80;;
37201;SDS011;37799;52.390;6.136;2024-02-26T13:30:58;7.75;;;2.70;;
37201;SDS011;37799;52.390;6.136;2024-02-26T13:33:26;7.55;;;2.60;;
37201;SDS011;37799;52.390;6.136;2024-02-26T13:35:57;7.35;;;2.53;;
37201;SDS011;37799;52.390;6.136;2024-02-26T13:38:23;7.47;;;2.20;;
37201;SDS011;37799;52.390;6.136;2024-02-26T13:40:49;7.50;;;2.60;;
37201;SDS011;37799;52.390;6.136;2024-02-26T13:43:15;8.05;;;2.40;;
37201;SDS011;37799;52.390;6.136;2024-02-26T13:45:40;7.40;;;2.47;;
37201;SDS011;37799;52.390;6.136;2024-02-26T13:48:06;8.70;;;2.90;;
37201;SDS011;37799;52.390;6.136;2024-02-26T13:50:34;7.30;;;2.30;;
37201;SDS011;37799;52.390;6.136;2024-02-26T13:53:00;7.13;;;2.45;;
37201;SDS011;37799;52.390;6.136;2024-02-26T13:55:25;6.43;;;2.28;;
37201;SDS011;37799;52.390;6.136;2024-02-26T13:57:53;8.98;;;2.53;;
37201;SDS011;37799;52.390;6.136;2024-02-26T14:00:19;7.63;;;2.20;;
37201;SDS011;37799;52.390;6.136;2024-02-26T14:02:44;7.63;;;2.50;;
37201;SDS011;37799;52.390;6.136;2024-02-26T14:05:10;6.68;;;2.17;;
37201;SDS011;37799;52.390;6.136;2024-02-26T14:07:35;7.18;;;2.42;;
37201;SDS011;37799;52.390;6.136;2024-02-26T14:10:00;6.45;;;2.00;;
37201;SDS011;37799;52.390;6.136;2024-02-26T14:12:26;7.10;;;2.30;;
37201;SDS011;37799;52.390;6.136;2024-02-26T14:14:51;5.85;;;1.77;;
37201;SDS011;37799;52.390;6.136;2024-02-26T14:17:19;6.72;;;2.00;;
37201;SDS011;37799;52.390;6.136;2024-02-26T14:19:44;6.65;;;2.33;;
37201;SDS011;37799;52.390;6.136;2024-02-26T14:22:13;5.75;;;1.63;;
37201;SDS011;37799;52.390;6.136;2024-02-26T14:24:40;7.03;;;1.83;;
37201;SDS011;37799;52.390;6.136;2024-02-26T14:27:07;6.20;;;1.92;;
37201;SDS011;37799;52.390;6.136;2024-02-26T14:29:33;6.72;;;2.13;;
37201;SDS011;37799;52.390;6.136;2024-02-26T14:31:59;6.78;;;1.92;;
37201;SDS011;37799;52.390;6.136;2024-02-26T14:34:24;6.80;;;2.25;;
37201;SDS011;37799;52.390;6.136;2024-02-26T14:36:51;7.40;;;2.53;;
37201;SDS011;37799;52.390;6.136;2024-02-26T14:39:17;6.72;;;2.08;;
37201;SDS011;37799;52.390;6.136;2024-02-26T14:41:42;7.03;;;2.17;;